sensor_id;sensor_type;location;lat;lon;timestamp;temperature;humidity
13835;DHT22;6988;52.614;13.500;2023-10-08T00:02:01;11.60;99.90
13835;DHT22;6988;52.614;13.500;2023-10-08T00:06:54;11.60;99.90
13835;DHT22;6988;52.614;13.500;2023-10-08T00:11:46;11.60;99.90
13835;DHT22;6988;52.614;13.500;2023-10-08T00:16:43;11.60;99.90
13835;DHT22;6988;52.614;13.500;2023-10-08T00:21:40;11.60;99.90
13835;DHT22;6988;52.614;13.500;2023-10-08T00:26:35;11.50;99.90
13835;DHT22;6988;52.614;13.500;2023-10-08T00:31:30;11.60;99.90
13835;DHT22;6988;52.614;13.500;2023-10-08T00:36:29;11.70;99.90
13835;DHT22;6988;52.614;13.500;2023-10-08T00:41:21;11.60;99.90
13835;DHT22;6988;52.614;13.500;2023-10-08T00:46:13;11.60;99.90
13835;DHT22;6988;52.614;13.500;2023-10-08T00:51:10;11.60;99.90
13835;DHT22;6988;52.614;13.500;2023-10-08T00:56:18;11.60;99.90
13835;DHT22;6988;52.614;13.500;2023-10-08T01:01:10;11.60;99.90
13835;DHT22;6988;52.614;13.500;2023-10-08T01:06:02;11.60;99.90
13835;DHT22;6988;52.614;13.500;2023-10-08T01:10:55;11.50;99.90
13835;DHT22;6988;52.614;13.500;2023-10-08T01:15:52;11.60;99.90
13835;DHT22;6988;52.614;13.500;2023-10-08T01:20:45;11.60;99.90
13835;DHT22;6988;52.614;13.500;2023-10-08T01:25:44;11.50;99.90
13835;DHT22;6988;52.614;13.500;2023-10-08T01:30:42;11.40;99.90
13835;DHT22;6988;52.614;13.500;2023-10-08T01:35:37;11.60;99.90
13835;DHT22;6988;52.614;13.500;2023-10-08T01:40:29;11.50;99.90
13835;DHT22;6988;52.614;13.500;2023-10-08T01:45:22;11.50;99.90
13835;DHT22;6988;52.614;13.500;2023-10-08T01:50:15;11.50;99.90
13835;DHT22;6988;52.614;13.500;2023-10-08T01:55:11;11.50;99.90
13835;DHT22;6988;52.614;13.500;2023-10-08T02:00:09;11.50;99.90
13835;DHT22;6988;52.614;13.500;2023-10-08T02:05:04;11.50;99.90
13835;DHT22;6988;52.614;13.500;2023-10-08T02:09:57;11.50;99.90
13835;DHT22;6988;52.614;13.500;2023-10-08T02:14:49;11.40;99.90
13835;DHT22;6988;52.614;13.500;2023-10-08T02:19:41;11.40;99.90
13835;DHT22;6988;52.614;13.500;2023-10-08T02:24:37;11.40;99.90
13835;DHT22;6988;52.614;13.500;2023-10-08T02:29:31;11.40;99.90
13835;DHT22;6988;52.614;13.500;2023-10-08T02:34:23;11.40;99.90
13835;DHT22;6988;52.614;13.500;2023-10-08T02:39:15;11.40;99.90
13835;DHT22;6988;52.614;13.500;2023-10-08T02:44:13;11.40;99.90
13835;DHT22;6988;52.614;13.500;2023-10-08T02:49:05;11.40;99.90
13835;DHT22;6988;52.614;13.500;2023-10-08T02:54:00;11.40;99.90
13835;DHT22;6988;52.614;13.500;2023-10-08T02:58:56;11.40;99.90
13835;DHT22;6988;52.614;13.500;2023-10-08T03:03:49;11.30;99.90
13835;DHT22;6988;52.614;13.500;2023-10-08T03:08:44;11.30;99.90
13835;DHT22;6988;52.614;13.500;2023-10-08T03:13:38;11.40;99.90
13835;DHT22;6988;52.614;13.500;2023-10-08T03:18:30;11.30;99.90
13835;DHT22;6988;52.614;13.500;2023-10-08T03:23:28;11.30;99.90
13835;DHT22;6988;52.614;13.500;2023-10-08T03:28:24;11.30;99.90
13835;DHT22;6988;52.614;13.500;2023-10-08T03:33:20;11.30;99.90
13835;DHT22;6988;52.614;13.500;2023-10-08T03:38:17;11.30;99.90
13835;DHT22;6988;52.614;13.500;2023-10-08T03:43:20;11.20;99.90
13835;DHT22;6988;52.614;13.500;2023-10-08T03:48:24;11.20;99.90
13835;DHT22;6988;52.614;13.500;2023-10-08T03:53:20;11.30;99.90
13835;DHT22;6988;52.614;13.500;2023-10-08T03:58:13;11.30;99.90
13835;DHT22;6988;52.614;13.500;2023-10-08T04:03:19;11.30;99.90
13835;DHT22;6988;52.614;13.500;2023-10-08T04:08:31;11.30;99.90
13835;DHT22;6988;52.614;13.500;2023-10-08T04:13:34;11.20;99.90
13835;DHT22;6988;52.614;13.500;2023-10-08T04:18:30;11.10;99.90
13835;DHT22;6988;52.614;13.500;2023-10-08T04:23:23;11.00;99.90
13835;DHT22;6988;52.614;13.500;2023-10-08T04:28:15;11.00;99.90
13835;DHT22;6988;52.614;13.500;2023-10-08T04:33:10;11.00;99.90
13835;DHT22;6988;52.614;13.500;2023-10-08T04:38:05;11.00;99.90
13835;DHT22;6988;52.614;13.500;2023-10-08T04:42:59;10.90;99.90
13835;DHT22;6988;52.614;13.500;2023-10-08T04:47:53;10.90;99.90
13835;DHT22;6988;52.614;13.500;2023-10-08T04:52:49;10.80;99.90
13835;DHT22;6988;52.614;13.500;2023-10-08T04:57:50;10.80;99.90
13835;DHT22;6988;52.614;13.500;2023-10-08T05:02:43;10.70;99.90
13835;DHT22;6988;52.614;13.500;2023-10-08T05:07:41;10.70;99.90
13835;DHT22;6988;52.614;13.500;2023-10-08T05:12:46;10.60;99.90
13835;DHT22;6988;52.614;13.500;2023-10-08T05:17:52;10.50;99.90
13835;DHT22;6988;52.614;13.500;2023-10-08T05:23:06;10.50;99.90
13835;DHT22;6988;52.614;13.500;2023-10-08T05:28:31;10.50;99.90
13835;DHT22;6988;52.614;13.500;2023-10-08T05:33:27;10.40;99.90
13835;DHT22;6988;52.614;13.500;2023-10-08T05:38:39;10.40;99.90
13835;DHT22;6988;52.614;13.500;2023-10-08T05:43:49;10.30;99.90
13835;DHT22;6988;52.614;13.500;2023-10-08T05:49:06;10.40;99.90
13835;DHT22;6988;52.614;13.500;2023-10-08T05:54:17;10.30;99.90
13835;DHT22;6988;52.614;13.500;2023-10-08T05:59:26;10.30;99.90
13835;DHT22;6988;52.614;13.500;2023-10-08T06:04:30;10.30;99.90
13835;DHT22;6988;52.614;13.500;2023-10-08T06:09:44;10.30;99.90
13835;DHT22;6988;52.614;13.500;2023-10-08T06:14:52;10.30;99.90
13835;DHT22;6988;52.614;13.500;2023-10-08T06:19:58;10.30;99.90
13835;DHT22;6988;52.614;13.500;2023-10-08T06:25:07;10.30;99.90
13835;DHT22;6988;52.614;13.500;2023-10-08T06:30:13;10.50;99.90
13835;DHT22;6988;52.614;13.500;2023-10-08T06:35:09;10.60;99.90
13835;DHT22;6988;52.614;13.500;2023-10-08T06:40:08;10.80;99.90
13835;DHT22;6988;52.614;13.500;2023-10-08T06:45:23;11.20;99.90
13835;DHT22;6988;52.614;13.500;2023-10-08T06:50:20;11.40;99.90
13835;DHT22;6988;52.614;13.500;2023-10-08T06:55:12;11.60;99.90
13835;DHT22;6988;52.614;13.500;2023-10-08T07:00:09;11.80;99.90
13835;DHT22;6988;52.614;13.500;2023-10-08T07:05:23;12.00;99.90
13835;DHT22;6988;52.614;13.500;2023-10-08T07:10:16;12.20;99.90
13835;DHT22;6988;52.614;13.500;2023-10-08T07:15:10;12.30;99.90
13835;DHT22;6988;52.614;13.500;2023-10-08T07:20:04;12.40;99.90
13835;DHT22;6988;52.614;13.500;2023-10-08T07:25:06;12.70;99.90
13835;DHT22;6988;52.614;13.500;2023-10-08T07:29:59;13.10;99.90
13835;DHT22;6988;52.614;13.500;2023-10-08T07:34:53;13.30;99.90
13835;DHT22;6988;52.614;13.500;2023-10-08T07:39:52;13.60;99.90
13835;DHT22;6988;52.614;13.500;2023-10-08T07:44:47;13.70;99.90
13835;DHT22;6988;52.614;13.500;2023-10-08T07:49:41;14.00;99.90
13835;DHT22;6988;52.614;13.500;2023-10-08T07:54:35;14.30;99.90
13835;DHT22;6988;52.614;13.500;2023-10-08T07:59:27;14.70;99.90
13835;DHT22;6988;52.614;13.500;2023-10-08T08:04:20;15.10;99.90
13835;DHT22;6988;52.614;13.500;2023-10-08T08:09:13;15.30;99.90
13835;DHT22;6988;52.614;13.500;2023-10-08T08:14:10;15.50;99.90
13835;DHT22;6988;52.614;13.500;2023-10-08T08:19:01;15.80;99.90
13835;DHT22;6988;52.614;13.500;2023-10-08T08:23:55;16.10;99.90
13835;DHT22;6988;52.614;13.500;2023-10-08T08:28:56;16.30;99.90
13835;DHT22;6988;52.614;13.500;2023-10-08T08:33:50;16.50;99.90
13835;DHT22;6988;52.614;13.500;2023-10-08T08:38:47;16.60;99.90
13835;DHT22;6988;52.614;13.500;2023-10-08T08:43:41;16.60;99.90
13835;DHT22;6988;52.614;13.500;2023-10-08T08:48:36;17.00;99.90
13835;DHT22;6988;52.614;13.500;2023-10-08T08:53:30;17.30;99.90
13835;DHT22;6988;52.614;13.500;2023-10-08T08:58:25;17.60;99.90
13835;DHT22;6988;52.614;13.500;2023-10-08T09:03:18;17.60;99.90
13835;DHT22;6988;52.614;13.500;2023-10-08T09:08:10;17.70;99.90
13835;DHT22;6988;52.614;13.500;2023-10-08T09:13:02;18.10;99.90
13835;DHT22;6988;52.614;13.500;2023-10-08T09:17:55;18.60;99.90
13835;DHT22;6988;52.614;13.500;2023-10-08T09:23:06;18.60;99.90
13835;DHT22;6988;52.614;13.500;2023-10-08T09:27:59;18.70;99.90
13835;DHT22;6988;52.614;13.500;2023-10-08T09:32:51;18.80;99.90
13835;DHT22;6988;52.614;13.500;2023-10-08T09:37:44;18.90;99.90
13835;DHT22;6988;52.614;13.500;2023-10-08T09:42:38;19.00;99.90
13835;DHT22;6988;52.614;13.500;2023-10-08T09:47:30;18.70;99.90
13835;DHT22;6988;52.614;13.500;2023-10-08T09:52:33;18.80;99.90
13835;DHT22;6988;52.614;13.500;2023-10-08T09:57:29;18.90;99.90
13835;DHT22;6988;52.614;13.500;2023-10-08T10:02:23;19.10;99.90
13835;DHT22;6988;52.614;13.500;2023-10-08T10:07:18;19.20;99.90
13835;DHT22;6988;52.614;13.500;2023-10-08T10:12:11;19.40;99.90
13835;DHT22;6988;52.614;13.500;2023-10-08T10:17:13;19.50;99.90
13835;DHT22;6988;52.614;13.500;2023-10-08T10:22:10;19.20;99.90
13835;DHT22;6988;52.614;13.500;2023-10-08T10:27:12;18.80;99.90
13835;DHT22;6988;52.614;13.500;2023-10-08T10:32:06;18.50;99.90
13835;DHT22;6988;52.614;13.500;2023-10-08T10:37:01;18.20;99.90
13835;DHT22;6988;52.614;13.500;2023-10-08T10:42:01;17.90;99.90
13835;DHT22;6988;52.614;13.500;2023-10-08T10:46:57;17.80;99.90
13835;DHT22;6988;52.614;13.500;2023-10-08T10:52:20;18.00;99.90
13835;DHT22;6988;52.614;13.500;2023-10-08T10:57:36;18.10;99.90
13835;DHT22;6988;52.614;13.500;2023-10-08T11:02:33;17.90;99.90
13835;DHT22;6988;52.614;13.500;2023-10-08T11:07:30;17.90;99.90
13835;DHT22;6988;52.614;13.500;2023-10-08T11:12:24;18.10;99.90
13835;DHT22;6988;52.614;13.500;2023-10-08T11:17:34;18.30;99.90
13835;DHT22;6988;52.614;13.500;2023-10-08T11:22:40;18.70;99.90
13835;DHT22;6988;52.614;13.500;2023-10-08T11:27:35;18.80;99.90
13835;DHT22;6988;52.614;13.500;2023-10-08T11:32:29;18.80;99.90
13835;DHT22;6988;52.614;13.500;2023-10-08T11:37:31;18.80;99.90
13835;DHT22;6988;52.614;13.500;2023-10-08T11:42:25;18.80;99.90
13835;DHT22;6988;52.614;13.500;2023-10-08T11:47:30;18.90;99.90
13835;DHT22;6988;52.614;13.500;2023-10-08T11:52:26;19.10;99.90
13835;DHT22;6988;52.614;13.500;2023-10-08T11:57:19;18.70;99.90
13835;DHT22;6988;52.614;13.500;2023-10-08T12:02:13;18.70;99.90
13835;DHT22;6988;52.614;13.500;2023-10-08T12:07:07;18.60;99.90
13835;DHT22;6988;52.614;13.500;2023-10-08T12:12:02;18.50;99.90
13835;DHT22;6988;52.614;13.500;2023-10-08T12:17:03;18.40;99.90
13835;DHT22;6988;52.614;13.500;2023-10-08T12:22:01;18.20;99.90
13835;DHT22;6988;52.614;13.500;2023-10-08T12:26:53;18.30;99.90
13835;DHT22;6988;52.614;13.500;2023-10-08T12:31:46;18.50;99.90
13835;DHT22;6988;52.614;13.500;2023-10-08T12:36:39;18.50;99.90
13835;DHT22;6988;52.614;13.500;2023-10-08T12:41:32;18.80;99.90
13835;DHT22;6988;52.614;13.500;2023-10-08T12:46:28;19.10;99.90
13835;DHT22;6988;52.614;13.500;2023-10-08T12:51:23;19.10;99.90
13835;DHT22;6988;52.614;13.500;2023-10-08T12:56:17;18.90;99.90
13835;DHT22;6988;52.614;13.500;2023-10-08T13:01:12;18.60;99.90
13835;DHT22;6988;52.614;13.500;2023-10-08T13:06:04;18.40;99.90
13835;DHT22;6988;52.614;13.500;2023-10-08T13:10:56;18.80;99.90
13835;DHT22;6988;52.614;13.500;2023-10-08T13:15:52;19.10;99.90
13835;DHT22;6988;52.614;13.500;2023-10-08T13:20:46;19.20;99.90
13835;DHT22;6988;52.614;13.500;2023-10-08T13:25:39;18.90;99.60
13835;DHT22;6988;52.614;13.500;2023-10-08T13:30:30;18.90;99.90
13835;DHT22;6988;52.614;13.500;2023-10-08T13:35:24;19.00;99.90
13835;DHT22;6988;52.614;13.500;2023-10-08T13:40:16;19.00;99.90
13835;DHT22;6988;52.614;13.500;2023-10-08T13:45:09;18.70;99.10
13835;DHT22;6988;52.614;13.500;2023-10-08T13:50:07;18.60;99.90
13835;DHT22;6988;52.614;13.500;2023-10-08T13:55:03;18.50;99.90
13835;DHT22;6988;52.614;13.500;2023-10-08T13:59:57;18.50;99.40
13835;DHT22;6988;52.614;13.500;2023-10-08T14:04:50;18.60;99.50
13835;DHT22;6988;52.614;13.500;2023-10-08T14:09:43;18.50;99.90
13835;DHT22;6988;52.614;13.500;2023-10-08T14:14:38;18.30;98.80
13835;DHT22;6988;52.614;13.500;2023-10-08T14:19:35;18.00;99.90
13835;DHT22;6988;52.614;13.500;2023-10-08T14:24:33;17.90;99.90
13835;DHT22;6988;52.614;13.500;2023-10-08T14:29:28;17.80;99.90
13835;DHT22;6988;52.614;13.500;2023-10-08T14:34:21;17.80;99.90
13835;DHT22;6988;52.614;13.500;2023-10-08T14:39:34;17.60;99.90
13835;DHT22;6988;52.614;13.500;2023-10-08T14:44:44;17.50;99.90
13835;DHT22;6988;52.614;13.500;2023-10-08T14:49:38;17.40;99.90
13835;DHT22;6988;52.614;13.500;2023-10-08T14:54:30;17.20;99.90
13835;DHT22;6988;52.614;13.500;2023-10-08T14:59:23;16.90;99.90
13835;DHT22;6988;52.614;13.500;2023-10-08T15:04:18;16.80;99.90
13835;DHT22;6988;52.614;13.500;2023-10-08T15:09:11;16.70;99.90
13835;DHT22;6988;52.614;13.500;2023-10-08T15:14:11;16.50;99.90
13835;DHT22;6988;52.614;13.500;2023-10-08T15:19:03;16.40;99.90
13835;DHT22;6988;52.614;13.500;2023-10-08T15:23:55;16.20;99.90
13835;DHT22;6988;52.614;13.500;2023-10-08T15:28:48;16.00;99.90
13835;DHT22;6988;52.614;13.500;2023-10-08T15:33:40;15.80;99.90
13835;DHT22;6988;52.614;13.500;2023-10-08T15:38:32;15.60;99.90
13835;DHT22;6988;52.614;13.500;2023-10-08T15:43:24;15.50;99.90
13835;DHT22;6988;52.614;13.500;2023-10-08T15:48:18;15.30;99.90
13835;DHT22;6988;52.614;13.500;2023-10-08T15:53:10;15.10;99.90
13835;DHT22;6988;52.614;13.500;2023-10-08T15:58:01;14.80;99.90
13835;DHT22;6988;52.614;13.500;2023-10-08T16:02:53;14.50;99.90
13835;DHT22;6988;52.614;13.500;2023-10-08T16:07:46;14.50;99.90
13835;DHT22;6988;52.614;13.500;2023-10-08T16:12:39;14.40;99.90
13835;DHT22;6988;52.614;13.500;2023-10-08T16:17:31;14.30;99.90
13835;DHT22;6988;52.614;13.500;2023-10-08T16:22:22;14.20;99.90
13835;DHT22;6988;52.614;13.500;2023-10-08T16:27:16;14.10;99.90
13835;DHT22;6988;52.614;13.500;2023-10-08T16:32:09;14.00;99.90
13835;DHT22;6988;52.614;13.500;2023-10-08T16:37:02;13.90;99.90
13835;DHT22;6988;52.614;13.500;2023-10-08T16:41:54;13.80;99.90
13835;DHT22;6988;52.614;13.500;2023-10-08T16:46:49;13.70;99.90
13835;DHT22;6988;52.614;13.500;2023-10-08T16:51:41;13.50;99.90
13835;DHT22;6988;52.614;13.500;2023-10-08T16:56:33;13.40;99.90
13835;DHT22;6988;52.614;13.500;2023-10-08T17:01:25;13.20;99.90
13835;DHT22;6988;52.614;13.500;2023-10-08T17:06:18;13.30;99.90
13835;DHT22;6988;52.614;13.500;2023-10-08T17:11:10;13.10;99.90
13835;DHT22;6988;52.614;13.500;2023-10-08T17:16:03;13.10;99.90
13835;DHT22;6988;52.614;13.500;2023-10-08T17:20:58;13.00;99.90
13835;DHT22;6988;52.614;13.500;2023-10-08T17:25:51;13.00;99.90
13835;DHT22;6988;52.614;13.500;2023-10-08T17:30:42;13.10;99.90
13835;DHT22;6988;52.614;13.500;2023-10-08T17:35:34;12.90;99.90
13835;DHT22;6988;52.614;13.500;2023-10-08T17:40:26;12.80;99.90
13835;DHT22;6988;52.614;13.500;2023-10-08T17:45:20;12.70;99.90
13835;DHT22;6988;52.614;13.500;2023-10-08T17:50:15;12.70;99.90
13835;DHT22;6988;52.614;13.500;2023-10-08T17:55:07;12.60;99.90
13835;DHT22;6988;52.614;13.500;2023-10-08T18:00:04;12.60;99.90
13835;DHT22;6988;52.614;13.500;2023-10-08T18:05:03;12.50;99.90
13835;DHT22;6988;52.614;13.500;2023-10-08T18:09:55;12.50;99.90
13835;DHT22;6988;52.614;13.500;2023-10-08T18:14:47;12.50;99.90
13835;DHT22;6988;52.614;13.500;2023-10-08T18:19:40;12.40;99.90
13835;DHT22;6988;52.614;13.500;2023-10-08T18:24:35;12.40;99.90
13835;DHT22;6988;52.614;13.500;2023-10-08T18:29:28;12.50;99.90
13835;DHT22;6988;52.614;13.500;2023-10-08T18:34:20;12.40;99.90
13835;DHT22;6988;52.614;13.500;2023-10-08T18:39:12;12.40;99.90
13835;DHT22;6988;52.614;13.500;2023-10-08T18:44:10;12.40;99.90
13835;DHT22;6988;52.614;13.500;2023-10-08T18:49:04;12.40;99.90
13835;DHT22;6988;52.614;13.500;2023-10-08T18:53:57;12.40;99.90
13835;DHT22;6988;52.614;13.500;2023-10-08T18:58:50;12.30;99.90
13835;DHT22;6988;52.614;13.500;2023-10-08T19:03:43;12.20;99.90
13835;DHT22;6988;52.614;13.500;2023-10-08T19:08:36;12.20;99.90
13835;DHT22;6988;52.614;13.500;2023-10-08T19:13:28;12.20;99.90
13835;DHT22;6988;52.614;13.500;2023-10-08T19:18:20;12.10;99.90
13835;DHT22;6988;52.614;13.500;2023-10-08T19:23:14;12.00;99.90
13835;DHT22;6988;52.614;13.500;2023-10-08T19:28:09;12.00;99.90
13835;DHT22;6988;52.614;13.500;2023-10-08T19:33:05;12.00;99.90
13835;DHT22;6988;52.614;13.500;2023-10-08T19:37:58;12.00;99.90
13835;DHT22;6988;52.614;13.500;2023-10-08T19:42:52;12.00;99.90
13835;DHT22;6988;52.614;13.500;2023-10-08T19:47:47;11.90;99.90
13835;DHT22;6988;52.614;13.500;2023-10-08T19:52:41;11.90;99.90
13835;DHT22;6988;52.614;13.500;2023-10-08T19:57:33;11.90;99.90
13835;DHT22;6988;52.614;13.500;2023-10-08T20:02:32;11.90;99.90
13835;DHT22;6988;52.614;13.500;2023-10-08T20:07:26;11.80;99.90
13835;DHT22;6988;52.614;13.500;2023-10-08T20:12:21;11.70;99.90
13835;DHT22;6988;52.614;13.500;2023-10-08T20:17:13;11.70;99.90
13835;DHT22;6988;52.614;13.500;2023-10-08T20:22:10;11.70;99.90
13835;DHT22;6988;52.614;13.500;2023-10-08T20:27:04;11.60;99.90
13835;DHT22;6988;52.614;13.500;2023-10-08T20:31:56;11.60;99.90
13835;DHT22;6988;52.614;13.500;2023-10-08T20:36:50;11.60;99.90
13835;DHT22;6988;52.614;13.500;2023-10-08T20:41:44;11.60;99.90
13835;DHT22;6988;52.614;13.500;2023-10-08T20:46:37;11.50;99.90
13835;DHT22;6988;52.614;13.500;2023-10-08T20:51:30;11.40;99.90
13835;DHT22;6988;52.614;13.500;2023-10-08T20:56:25;11.30;99.90
13835;DHT22;6988;52.614;13.500;2023-10-08T21:01:19;11.30;99.90
13835;DHT22;6988;52.614;13.500;2023-10-08T21:06:17;11.30;99.90
13835;DHT22;6988;52.614;13.500;2023-10-08T21:11:12;11.20;99.90
13835;DHT22;6988;52.614;13.500;2023-10-08T21:16:12;11.20;99.90
13835;DHT22;6988;52.614;13.500;2023-10-08T21:21:05;11.10;99.90
13835;DHT22;6988;52.614;13.500;2023-10-08T21:25:58;10.90;99.90
13835;DHT22;6988;52.614;13.500;2023-10-08T21:30:51;10.80;99.90
13835;DHT22;6988;52.614;13.500;2023-10-08T21:35:42;10.70;99.90
13835;DHT22;6988;52.614;13.500;2023-10-08T21:40:36;10.70;99.90
13835;DHT22;6988;52.614;13.500;2023-10-08T22:03:52;10.20;99.90
13835;DHT22;6988;52.614;13.500;2023-10-08T22:08:45;10.20;99.90
13835;DHT22;6988;52.614;13.500;2023-10-08T22:13:37;10.10;99.90
13835;DHT22;6988;52.614;13.500;2023-10-08T22:18:31;10.10;99.90
13835;DHT22;6988;52.614;13.500;2023-10-08T22:23:32;10.10;99.90
13835;DHT22;6988;52.614;13.500;2023-10-08T22:28:28;10.10;99.90
13835;DHT22;6988;52.614;13.500;2023-10-08T22:33:22;10.10;99.90
13835;DHT22;6988;52.614;13.500;2023-10-08T22:38:19;10.10;99.90
13835;DHT22;6988;52.614;13.500;2023-10-08T22:43:14;10.10;99.90
13835;DHT22;6988;52.614;13.500;2023-10-08T22:48:06;10.10;99.90
13835;DHT22;6988;52.614;13.500;2023-10-08T22:52:58;10.30;99.90
13835;DHT22;6988;52.614;13.500;2023-10-08T22:57:52;10.10;99.90
13835;DHT22;6988;52.614;13.500;2023-10-08T23:02:45;10.10;99.90
13835;DHT22;6988;52.614;13.500;2023-10-08T23:07:37;10.00;99.90
13835;DHT22;6988;52.614;13.500;2023-10-08T23:12:28;10.00;99.90
13835;DHT22;6988;52.614;13.500;2023-10-08T23:17:20;10.10;99.90
13835;DHT22;6988;52.614;13.500;2023-10-08T23:22:15;10.10;99.90
13835;DHT22;6988;52.614;13.500;2023-10-08T23:27:08;10.10;99.90
13835;DHT22;6988;52.614;13.500;2023-10-08T23:31:59;10.10;99.90
13835;DHT22;6988;52.614;13.500;2023-10-08T23:36:51;10.10;99.90
13835;DHT22;6988;52.614;13.500;2023-10-08T23:41:49;10.10;99.90
13835;DHT22;6988;52.614;13.500;2023-10-08T23:46:42;10.10;99.90
13835;DHT22;6988;52.614;13.500;2023-10-08T23:51:35;10.20;99.90
13835;DHT22;6988;52.614;13.500;2023-10-08T23:56:32;10.10;99.90
